KABE

Lehigh Valley International Airport

Allentown, Pennsylvania, USA
METAR KABE 211251Z 11010KT 10SM FEW029 FEW060 23/14 A3007 RMK AO2 SLP180 T02280144
Observed Flight Rules
Jul-21 @ 12:51 UTC (59 minutes ago) Visual Flight Rules
Wind Visibility Clouds
110° at 10 knots 10 miles
  • Few at 2,900' AGL
  • Few at 6,000' AGL
Temperatures Readings
Current 23°C / 73°F
Dewpoint 14°C / 57°F
Humidity 57%
Altimeter 30.07" Hg
Pressure 1018 hPa
Elevation 114
METAR KABE 211251Z 11010KT 10SM FEW029 FEW060 23/14 A3007 RMK AO2 SLP180 T02280144
Observed Flight Rules
Jul-21 @ 12:51 UTC
(59 minutes ago)
VFR
Wind Visibility
110° at 10 knots 10 miles
Clouds
  • Few at 2,900' AGL
  • Few at 6,000' AGL
Temperature Dewpoint
23°C / 73°F 14°C / 57°F
Humidity Altimeter Pressure
57% 30.07" Hg 1018 hPa